New England — V7HF3 — position and weather

sailwx.info

Track history (hours):
 
Tides and Currents Weather Stations Pressure Air Temp Water Temp Dewpoint Dewpoint Depression Visibility Wind Speed Wind Dir Waves Ship Positions

New England

Last reported at 2014-Aug-14 21:18 UTC. Time now 2014-Aug-20 16:37 UTC.
Position N 42°26' W 070°47'.

Length 182 m; draft 7.3 m.

Type: Ship. MMSI: 538002220.

Date/timePositionNaut miles runAvg speedWind from/ knotsBaromVisibWave heightAir tempDewpointWater temp
2014-Aug-14 21:18N 42°26' W 070°47'0 0.0
2014-Aug-14 11:29N 42°26' W 070°47'0 0.0
2014-Aug-14 10:23N 42°26' W 070°47'0 0.1
2014-Aug-14 09:29N 42°26' W 070°47'3 3.0
2014-Aug-14 08:33N 42°27' W 070°43'7410.6
2014-Aug-14 01:33N 43°37' W 070°11'3 0.1
2014-Aug-12 19:10N 43°39' W 070°13'5 8.1
2014-Aug-12 18:32N 43°37' W 070°07'  
2014-Aug-07 14:33N 43°04' W 070°42'2 0.2
2014-Aug-07 01:32N 43°05' W 070°45'4 4.4
2014-Aug-07 00:33N 43°02' W 070°41'1 0.8
2014-Aug-06 23:19N 43°01' W 070°41'0 0.0
2014-Aug-06 22:32N 43°01' W 070°41'0 0.0
2014-Aug-06 21:33N 43°01' W 070°41'0 0.1
2014-Aug-06 20:33N 43°01' W 070°41'0 0.1
2014-Aug-06 19:33N 43°01' W 070°40'0 0.0
2014-Aug-06 18:20N 43°01' W 070°40'0 0.0
2014-Aug-06 17:33N 43°01' W 070°40'0 0.0
2014-Aug-06 16:33N 43°01' W 070°40'0 0.0
2014-Aug-06 15:34N 43°01' W 070°40'0 0.1
2014-Aug-06 14:34N 43°01' W 070°41'0 0.1
2014-Aug-06 13:33N 43°01' W 070°41'0 0.0
2014-Aug-06 12:32N 43°01' W 070°41'0 0.0
2014-Aug-06 11:29N 43°01' W 070°41'0 0.0
2014-Aug-06 10:29N 43°01' W 070°41'0 0.0
2014-Aug-06 09:33N 43°01' W 070°41'0 0.0
2014-Aug-06 08:34N 43°01' W 070°41'0 0.0
2014-Aug-06 07:33N 43°01' W 070°41'0 0.0
2014-Aug-06 06:33N 43°01' W 070°41'0 0.0
2014-Aug-06 05:34N 43°01' W 070°41'6 5.8
2014-Aug-06 04:33N 43°02' W 070°33'  
Track history (hours):
 
Tides and Currents Weather Stations Pressure Air Temp Water Temp Dewpoint Dewpoint Depression Visibility Wind Speed Wind Dir Waves Ship Positions

New England

Last reported at 2014-Aug-14 21:18 UTC. Time now 2014-Aug-20 16:37 UTC.
Position N 42°26' W 070°47'.

Length 182 m; draft 7.3 m.

Type: Ship. MMSI: 538002220.

Date/timePositionNaut miles runAvg speedWind from/ knotsBaromVisibWave heightAir tempDewpointWater temp
2014-Aug-14 21:18N 42°26' W 070°47'0 0.0
2014-Aug-14 11:29N 42°26' W 070°47'0 0.0
2014-Aug-14 10:23N 42°26' W 070°47'0 0.1
2014-Aug-14 09:29N 42°26' W 070°47'3 3.0
2014-Aug-14 08:33N 42°27' W 070°43'7410.6
2014-Aug-14 01:33N 43°37' W 070°11'3 0.1
2014-Aug-12 19:10N 43°39' W 070°13'5 8.1
2014-Aug-12 18:32N 43°37' W 070°07'  
2014-Aug-07 14:33N 43°04' W 070°42'2 0.2
2014-Aug-07 01:32N 43°05' W 070°45'4 4.4
2014-Aug-07 00:33N 43°02' W 070°41'1 0.8
2014-Aug-06 23:19N 43°01' W 070°41'0 0.0
2014-Aug-06 22:32N 43°01' W 070°41'0 0.0
2014-Aug-06 21:33N 43°01' W 070°41'0 0.1
2014-Aug-06 20:33N 43°01' W 070°41'0 0.1
2014-Aug-06 19:33N 43°01' W 070°40'0 0.0
2014-Aug-06 18:20N 43°01' W 070°40'0 0.0
2014-Aug-06 17:33N 43°01' W 070°40'0 0.0
2014-Aug-06 16:33N 43°01' W 070°40'0 0.0
2014-Aug-06 15:34N 43°01' W 070°40'0 0.1
2014-Aug-06 14:34N 43°01' W 070°41'0 0.1
2014-Aug-06 13:33N 43°01' W 070°41'0 0.0
2014-Aug-06 12:32N 43°01' W 070°41'0 0.0
2014-Aug-06 11:29N 43°01' W 070°41'0 0.0
2014-Aug-06 10:29N 43°01' W 070°41'0 0.0
2014-Aug-06 09:33N 43°01' W 070°41'0 0.0
2014-Aug-06 08:34N 43°01' W 070°41'0 0.0
2014-Aug-06 07:33N 43°01' W 070°41'0 0.0
2014-Aug-06 06:33N 43°01' W 070°41'0 0.0
2014-Aug-06 05:34N 43°01' W 070°41'6 5.8
2014-Aug-06 04:33N 43°02' W 070°33'  

Dump ship's entire track history